FVMA weather

Marondera Airport
Marondera, Mashonaland East Province, Zimbabwe

Public forecast

Using degrees Celsius for public forecast. Weather courtesy of forecast.io.

METAR (pilot weather report)

Closest report is Robert Gabriel Mugabe International Airport, 26.1 nm (48.4 km) NW. Retrieved 2019/05/25 20:00 UTC (23 minutes ago):

FVRG 252000Z 12007KT 090V170 CAVOK 13/06 Q1027 NOSIG

TAF (pilot weather forecast)

Forecast is more than 12 hours old.

Closest forecast is Robert Gabriel Mugabe International Airport, 26.1 nm (48.4 km) NW. Retrieved 2019/05/24 12:00 UTC (1 day ago):

TAF FVRG 241000Z 2412/2518 10008KT CAVOK